Bei Facebook empfehlenBei Twitter postenGoogle plusPinterest

Das Wetter im Erzgebirge am 06.09.2017

Wetter und Klima am 06.09.2017 Holzhau im Erzgebirge (630m ü.NN)
Letzte gemessene Temperatur und Uhrzeit der Messung23:45:00 Uhr10.40 °C
Temperatur (Maximum / Höchstwert) und Uhrzeit der Messung15:30:00 Uhr20.90 °C
Temperatur (Minimum / Tiefstwert) und Uhrzeit der Messung05:15:007.90 °C
Errechneter Absolutwert der Temperaturschwankungen zwischen Tmin und Tmax des Tages13.00 K
Errechnete Tagesmitteltemperatur13.34583 °C
Gesamt - Niederschlag des Tages (in flüssiger Form)1.56 Liter / m²
Luftdruck (Maximum / Höchstwert) und Zeitpunkt der Messung00:15:00 Uhr1015.00 hPa
Luftdruck (Minimum / Tiefstwert) und Zeitpunkt der Messung16:45:00 Uhr1008.50 hPa
Errechneter Absolutwert der Luftdruckschwankungen des Tages6.50 hPa
Höchste gemessene Windgeschwindigkeit und Uhrzeit der Messung17:15:00 Uhr41.40 km/h
Errechnete Windhäufigkeit in Relation zu den Messwerten des Tages19.79167 %
Niedrigste Windkühle (Windchill) und Zeitpunkt der Messung05:15:00 Uhr7.90 °C
Taupunkt (Maximum / Höchstwert) und Uhrzeit der Messung11:45:00 Uhr15.40 °C
Taupunkt (Minimum / Tiefstwert) und Uhrzeit der Messung05:00:006.70 °C
Anzahl der automatisch eingelesenen Messwerte 96

Detaillierte Wetter- und Klima- Messwerte für den 06.09.2017 in Holzhau im Erzgebirge (630m ü.NN)
ZeitTemperaturLuftdruckRel. LuftfeuchteWindWindrichtungWindchillTaupunktNiederschlag l/m²
23:45:0010.40 °C1010.70 hPa81.00 %7.30 °C1.56
23:30:0010.40 °C1010.70 hPa82.00 %7.50 °C1.56
23:15:0010.40 °C1010.80 hPa82.00 %7.50 °C1.56
23:00:0010.40 °C1010.70 hPa82.00 %7.50 °C1.56
22:45:0010.40 °C1010.60 hPa82.00 %29.88 km/hW9.40 °C7.50 °C1.56
22:30:0010.50 °C1010.80 hPa83.00 %21.96 km/hNW10.00 °C7.70 °C1.56
22:15:0010.50 °C1010.70 hPa85.00 %8.10 °C1.56
22:00:0010.20 °C1010.60 hPa86.00 %8.00 °C1.56
21:45:009.90 °C1010.70 hPa87.00 %7.80 °C1.56
21:30:0010.10 °C1010.60 hPa88.00 %8.20 °C1.56
21:15:0010.20 °C1010.60 hPa87.00 %19.44 km/hNW9.90 °C8.10 °C1.56
21:00:0010.40 °C1010.60 hPa88.00 %8.50 °C1.56
20:45:0010.80 °C1010.60 hPa89.00 %9.10 °C1.56
20:30:0010.90 °C1010.60 hPa89.00 %9.20 °C1.56
20:15:0011.20 °C1010.40 hPa89.00 %14.40 km/hNNW11.20 °C9.50 °C1.56
20:00:0011.60 °C1010.40 hPa89.00 %18.00 km/hWNW11.60 °C9.90 °C1.56
19:45:0012.40 °C1010.20 hPa88.00 %15.48 km/hNNW12.40 °C10.50 °C1.56
19:30:0013.40 °C1009.80 hPa86.00 %11.10 °C0.52
19:15:0013.80 °C1009.70 hPa85.00 %11.30 °C 
19:00:0013.90 °C1009.50 hPa85.00 %11.40 °C 
18:45:0014.10 °C1009.60 hPa84.00 %11.40 °C 
18:30:0014.30 °C1009.50 hPa83.00 %11.50 °C 
18:15:0014.60 °C1009.60 hPa82.00 %11.60 °C 
18:00:0014.90 °C1009.40 hPa80.00 %11.50 °C 
17:45:0015.80 °C1009.60 hPa80.00 %12.96 km/hWSW15.80 °C12.40 °C 
17:30:0017.10 °C1009.60 hPa74.00 %27.36 km/hNNW17.40 °C12.40 °C 
17:15:0019.10 °C1009.10 hPa69.00 %41.40 km/hWSW19.40 °C13.30 °C 
17:00:0019.00 °C1008.60 hPa71.00 %6.48 km/hW19.00 °C13.60 °C 
16:45:0018.70 °C1008.50 hPa72.00 %13.60 °C 
16:30:0019.10 °C1008.50 hPa72.00 %13.90 °C 
16:15:0019.30 °C1008.50 hPa69.00 %13.50 °C 
16:00:0020.50 °C1008.60 hPa65.00 %13.70 °C 
15:45:0020.80 °C1008.70 hPa66.00 %5.04 km/hSW20.80 °C14.20 °C 
15:30:0020.90 °C1008.60 hPa65.00 %25.92 km/hWSW21.90 °C14.10 °C 
15:15:0019.30 °C1008.90 hPa68.00 %13.20 °C 
15:00:0019.30 °C1009.20 hPa68.00 %16.92 km/hNNW19.30 °C13.20 °C 
14:45:0018.90 °C1009.00 hPa70.00 %6.48 km/hSW18.90 °C13.30 °C 
14:30:0018.80 °C1009.30 hPa68.00 %12.80 °C 
14:15:0020.40 °C1009.50 hPa64.00 %28.44 km/hONO21.20 °C13.40 °C 
14:00:0020.50 °C1009.40 hPa67.00 %15.48 km/hWNW20.50 °C14.20 °C 
13:45:0019.40 °C1009.50 hPa67.00 %13.10 °C 
13:30:0019.70 °C1009.50 hPa67.00 %15.48 km/hWNW19.70 °C13.40 °C 
13:15:0020.20 °C1009.60 hPa65.00 %13.40 °C 
13:00:0020.30 °C1009.70 hPa70.00 %14.70 °C 
12:45:0019.50 °C1009.90 hPa69.00 %13.70 °C 
12:30:0020.10 °C1009.90 hPa69.00 %14.20 °C 
12:15:0020.30 °C1010.10 hPa69.00 %14.40 °C 
12:00:0020.40 °C1010.20 hPa70.00 %14.70 °C 
11:45:0019.80 °C1010.40 hPa76.00 %15.40 °C 
11:30:0019.20 °C1010.50 hPa77.00 %10.44 km/hSSW19.20 °C15.10 °C 
11:15:0018.40 °C1010.60 hPa80.00 %21.96 km/hS19.10 °C14.90 °C 
11:00:0017.90 °C1010.70 hPa82.00 %14.80 °C 
10:45:0018.40 °C1010.70 hPa82.00 %15.30 °C 
10:30:0017.60 °C1010.60 hPa87.00 %15.40 °C 
10:15:0016.60 °C1011.00 hPa87.00 %14.40 °C 
10:00:0016.50 °C1011.20 hPa89.00 %14.70 °C 
09:45:0015.90 °C1011.20 hPa91.00 %14.40 °C 
09:30:0014.90 °C1011.30 hPa93.00 %13.80 °C 
09:15:0013.80 °C1011.20 hPa93.00 %12.70 °C 
09:00:0012.80 °C1011.20 hPa93.00 %11.70 °C 
08:45:0012.10 °C1011.40 hPa93.00 %11.00 °C 
08:30:0011.80 °C1011.40 hPa93.00 %10.70 °C 
08:15:0011.40 °C1011.40 hPa93.00 %10.30 °C 
08:00:0011.10 °C1011.50 hPa93.00 %10.00 °C 
07:45:0011.00 °C1011.40 hPa93.00 %9.90 °C 
07:30:0010.80 °C1011.30 hPa94.00 %9.90 °C 
07:15:0010.30 °C1011.30 hPa94.00 %9.40 °C 
07:00:009.90 °C1011.50 hPa94.00 %9.00 °C 
06:45:009.80 °C1011.40 hPa94.00 %8.90 °C 
06:30:009.50 °C1011.50 hPa94.00 %8.60 °C 
06:15:009.30 °C1011.70 hPa94.00 %8.40 °C 
06:00:009.00 °C1012.00 hPa94.00 %8.10 °C 
05:45:008.70 °C1012.00 hPa93.00 %7.60 °C 
05:30:008.20 °C1012.10 hPa93.00 %7.10 °C 
05:15:007.90 °C1012.20 hPa93.00 %6.80 °C 
05:00:007.90 °C1012.40 hPa92.00 %6.70 °C 
04:45:008.10 °C1012.90 hPa92.00 %6.90 °C 
04:30:008.10 °C1013.00 hPa92.00 %6.90 °C 
04:15:008.20 °C1013.10 hPa92.00 %7.00 °C 
04:00:008.20 °C1013.10 hPa91.00 %6.80 °C 
03:45:008.30 °C1013.20 hPa91.00 %6.90 °C 
03:30:008.40 °C1013.30 hPa91.00 %7.00 °C 
03:15:008.20 °C1013.40 hPa91.00 %6.80 °C 
03:00:008.30 °C1013.70 hPa91.00 %6.90 °C 
02:45:008.40 °C1013.70 hPa90.00 %6.90 °C 
02:30:008.50 °C1013.80 hPa90.00 %7.00 °C 
02:15:008.70 °C1014.00 hPa90.00 %7.20 °C 
02:00:008.90 °C1014.10 hPa90.00 %7.40 °C 
01:45:009.00 °C1014.20 hPa90.00 %7.50 °C 
01:30:008.80 °C1014.40 hPa89.00 %7.10 °C 
01:15:009.10 °C1014.70 hPa89.00 %7.40 °C 
01:00:009.50 °C1014.60 hPa89.00 %7.80 °C 
00:45:009.50 °C1014.70 hPa90.00 %7.90 °C 
00:30:009.20 °C1014.70 hPa89.00 %7.50 °C 
00:15:009.10 °C1015.00 hPa89.00 %7.40 °C 
00:00:009.10 °C1014.90 hPa89.00 %7.40 °C 

Permanenter Link zu dieser Seite: Wetter im Erzgebirge am 06.09.2017
Performance-Info: Die Erstellung der Seite / Statistik(en) / Tabelle(n) erforderte 5 Datenbankserver-Abfrage(n) und dauerte 123 Millisekunden. (Dieser Messwert ist von der Gesamt-Auslastung des Servers abhängig.)
Erzgebirge - Wetter | Erzgebirge - Wetter (Mobilgeräte) | Komplette Klimadatenbank